Time;durP1;ratioP1;P1;durP2;ratioP2;P2;SDS_P1;SDS_P2;PMS_P1;PMS_P2;Temp;Humidity;BMP_temperature;BMP_pressure;BME280_temperature;BME280_humidity;BME280_pressure;Samples;Min_cycle;Max_cycle;Signal;HPM_P1;HPM_P2
2022/06/23 00:01:34;;;;;;;6.95;2.05;;;20.00;77.40;;;17.20;70.12;100160.91;5011622;28;20049;-80
2022/06/23 00:04:02;;;;;;;6.65;2.10;;;20.00;77.60;;;17.13;70.17;100160.16;5012023;28;20042;-81
2022/06/23 00:06:41;;;;;;;6.50;2.67;;;19.90;77.60;;;17.10;70.68;100161.47;5012420;28;20056;-81
2022/06/23 00:09:38;;;;;;;7.55;2.38;;;19.90;77.90;;;17.11;70.80;100156.81;5040485;22;20115;-80
2022/06/23 00:12:25;;;;;;;3.63;1.75;;;19.90;78.10;;;17.09;70.10;100157.03;5046633;28;20056;-80
2022/06/23 00:15:12;;;;;;;4.20;2.10;;;19.80;77.90;;;17.22;70.05;100152.41;5071020;28;20086;-80
2022/06/23 00:17:44;;;;;;;4.95;2.58;;;19.90;77.80;;;17.28;70.15;100154.19;5071478;28;20055;-80
2022/06/23 00:20:16;;;;;;;5.75;2.40;;;19.80;77.80;;;17.24;70.43;100155.75;5068896;28;20046;-80
2022/06/23 00:22:46;;;;;;;4.88;2.20;;;19.80;78.20;;;17.25;70.55;100157.41;5057071;28;20124;-80
2022/06/23 00:25:30;;;;;;;6.28;2.70;;;19.80;78.30;;;17.20;70.04;100161.72;5071618;28;20127;-80
2022/06/23 00:27:58;;;;;;;7.38;2.38;;;19.80;78.10;;;17.20;69.78;100149.88;5043246;28;20047;-80
2022/06/23 00:30:35;;;;;;;6.78;2.13;;;19.80;77.80;;;17.17;70.19;100147.59;5050303;28;20038;-80
2022/06/23 00:33:08;;;;;;;5.68;2.35;;;19.80;78.00;;;17.17;69.84;100151.22;5061691;28;20097;-80
2022/06/23 00:35:35;;;;;;;5.65;2.28;;;19.80;78.00;;;17.18;70.17;100147.38;5062573;28;20056;-80
2022/06/23 00:38:03;;;;;;;5.95;2.38;;;19.80;78.00;;;17.15;71.04;100147.88;5047771;28;20040;-80
2022/06/23 00:40:30;;;;;;;5.75;2.53;;;19.80;78.40;;;17.11;70.69;100141.13;5056469;28;20041;-80
2022/06/23 00:43:02;;;;;;;6.55;2.33;;;19.70;78.50;;;17.15;70.16;100147.88;5051396;28;20045;-80
2022/06/23 00:45:36;;;;;;;4.47;2.15;;;19.70;78.10;;;17.29;69.28;100153.97;5050191;28;20511;-80
2022/06/23 00:48:15;;;;;;;5.75;2.47;;;19.70;77.90;;;17.29;70.09;100153.13;5050941;28;20108;-80
2022/06/23 00:50:50;;;;;;;4.43;2.15;;;19.80;78.20;;;17.19;69.71;100148.19;5051512;28;20033;-80
2022/06/23 00:53:26;;;;;;;7.57;2.72;;;19.70;78.10;;;17.07;70.67;100148.19;5042918;28;20037;-80
2022/06/23 00:56:02;;;;;;;5.25;2.20;;;19.70;78.40;;;17.08;70.68;100152.63;5052364;28;20036;-80
2022/06/23 00:58:43;;;;;;;5.70;2.45;;;19.70;78.30;;;17.06;70.34;100148.44;5049155;28;20049;-80
2022/06/23 01:01:21;;;;;;;7.03;2.58;;;19.70;78.20;;;16.97;71.33;100142.44;5048757;28;20122;-80
2022/06/23 01:03:58;;;;;;;5.72;2.70;;;19.70;78.80;;;16.92;72.83;100153.31;5049450;28;20053;-80
2022/06/23 01:06:39;;;;;;;7.72;2.40;;;19.60;79.50;;;16.89;72.62;100149.13;5050859;28;20063;-80
2022/06/23 01:09:17;;;;;;;;;;;19.60;79.60;;;16.81;72.39;100141.16;5063168;28;20041;-80
2022/06/23 01:11:51;;;;;;;6.28;2.67;;;19.60;79.40;;;16.70;73.30;100137.34;5058096;28;19920;-80
2022/06/23 01:14:30;;;;;;;5.07;2.40;;;19.50;79.90;;;16.64;74.66;100143.78;5042300;28;20076;-80
2022/06/23 01:17:08;;;;;;;4.30;2.58;;;19.50;80.30;;;16.58;75.17;100136.44;5050765;28;20045;-80
2022/06/23 01:20:16;;;;;;;7.20;2.60;;;19.40;80.50;;;16.52;74.61;100137.38;5050332;28;20045;-80
2022/06/23 01:23:15;;;;;;;4.90;2.50;;;19.40;80.20;;;16.49;74.66;100132.38;5049022;28;20414;-80
2022/06/23 01:26:23;;;;;;;7.20;2.85;;;19.40;80.40;;;16.42;75.92;100133.28;5045977;28;20124;-79
2022/06/23 01:29:00;;;;;;;7.03;2.60;;;19.30;81.00;;;16.41;76.22;100130.75;5033555;28;20145;-80
2022/06/23 01:31:40;;;;;;;7.40;2.95;;;19.30;81.40;;;16.37;76.62;100133.16;5049752;28;20045;-80
2022/06/23 01:34:18;;;;;;;4.63;2.20;;;19.30;81.50;;;16.32;77.03;100123.94;5053700;28;20062;-80
2022/06/23 01:36:51;;;;;;;6.95;3.03;;;19.20;81.40;;;16.27;77.42;100124.63;5064695;28;20656;-80
2022/06/23 01:39:25;;;;;;;6.18;2.80;;;19.20;81.90;;;16.27;77.30;100123.78;5039488;28;20044;-80
2022/06/23 01:41:59;;;;;;;7.63;2.70;;;19.20;81.80;;;16.20;77.19;100126.59;5057465;28;20045;-80
2022/06/23 01:44:45;;;;;;;5.38;2.60;;;19.20;81.80;;;16.15;77.97;100126.47;5057561;28;20050;-80
2022/06/23 01:47:28;;;;;;;6.18;3.03;;;19.10;82.10;;;16.13;77.79;100134.13;5049569;28;20041;-80
2022/06/23 01:50:19;;;;;;;8.95;2.88;;;19.10;82.20;;;16.13;77.70;100123.13;5056121;28;20068;-80
2022/06/23 01:52:48;;;;;;;5.82;2.65;;;19.10;82.20;;;16.11;79.00;100126.09;5049321;28;20080;-80
2022/06/23 01:55:20;;;;;;;6.47;2.80;;;19.00;82.70;;;16.06;79.86;100133.34;5067264;28;20051;-79
2022/06/23 01:57:53;;;;;;;7.45;2.90;;;19.00;83.30;;;15.99;79.66;100134.28;5065173;28;20047;-80
2022/06/23 02:00:24;;;;;;;4.78;2.60;;;19.00;83.20;;;15.95;80.71;100126.72;5064919;28;20116;-80
2022/06/23 02:03:00;;;;;;;6.88;3.10;;;19.00;83.70;;;15.97;80.56;100121.84;5049962;28;20040;-80
2022/06/23 02:05:39;;;;;;;6.55;3.00;;;18.90;83.70;;;16.00;80.52;100124.97;5069790;28;20052;-80
2022/06/23 02:08:30;;;;;;;7.38;3.00;;;18.90;83.70;;;15.96;81.92;100123.75;5063481;28;20045;-80
2022/06/23 02:11:07;;;;;;;5.93;2.87;;;18.90;84.30;;;15.96;81.09;100129.25;5048037;28;20041;-80
2022/06/23 02:13:43;;;;;;;7.03;3.03;;;18.90;84.20;;;15.97;80.50;100125.44;5044327;28;20052;-80
2022/06/23 02:16:23;;;;;;;5.70;2.85;;;18.90;84.00;;;16.02;80.71;100124.75;5049484;28;20139;-80
2022/06/23 02:19:00;;;;;;;7.55;3.50;;;18.90;83.90;;;16.05;80.73;100120.69;5069229;28;20089;-80
2022/06/23 02:21:35;;;;;;;8.90;3.40;;;18.90;84.10;;;16.10;80.18;100129.91;5063468;28;20709;-80
2022/06/23 02:24:15;;;;;;;7.30;3.75;;;18.90;83.90;;;16.08;80.43;100125.72;5056036;28;20127;-80
2022/06/23 02:26:58;;;;;;;7.90;3.70;;;18.90;83.90;;;16.12;79.84;100125.03;5064812;28;20123;-80
2022/06/23 02:29:31;;;;;;;8.65;3.72;;;18.90;83.80;;;16.13;79.48;100123.13;5053620;28;20037;-80
2022/06/23 02:32:07;;;;;;;8.23;3.42;;;18.90;83.60;;;16.19;78.68;100130.44;5049910;28;20116;-80
2022/06/23 02:34:44;;;;;;;6.30;3.35;;;18.90;83.30;;;16.19;79.55;100128.53;5049476;28;20128;-80
2022/06/23 02:37:56;;;;;;;6.03;3.58;;;18.90;83.90;;;16.16;79.92;100129.00;5048338;28;20140;-80
2022/06/23 02:40:27;;;;;;;;;;;18.90;84.10;;;16.17;79.79;100127.91;5045632;28;20535;-79
2022/06/23 02:43:00;;;;;;;6.22;3.10;;;18.90;84.00;;;16.15;79.62;100126.47;5049549;28;19931;-79
2022/06/23 02:46:22;;;;;;;7.70;3.53;;;18.90;84.00;;;16.12;80.09;100121.44;5054103;28;20049;-80
2022/06/23 02:49:19;;;;;;;7.03;3.30;;;18.90;84.00;;;16.10;80.71;100126.34;5068708;28;20039;-80
2022/06/23 02:52:18;;;;;;;5.45;3.47;;;18.90;84.40;;;16.08;80.48;100126.56;5052771;28;20056;-79
2022/06/23 02:55:20;;;;;;;6.13;3.33;;;18.80;84.40;;;16.04;80.65;100122.59;5055731;28;20098;-80
2022/06/23 02:57:54;;;;;;;7.25;3.47;;;18.80;84.40;;;16.03;80.78;100135.50;5067903;28;20061;-80
2022/06/23 03:00:32;;;;;;;7.68;3.60;;;18.80;84.50;;;16.06;80.15;100123.19;5057637;28;20144;-79
2022/06/23 03:03:09;;;;;;;8.63;3.50;;;18.80;84.40;;;16.05;81.00;100126.19;5044881;28;20047;-80
2022/06/23 03:05:43;;;;;;;8.32;3.80;;;18.80;84.70;;;16.03;80.66;100130.00;5049051;28;20068;-80
2022/06/23 03:08:24;;;;;;;6.97;3.47;;;18.80;84.70;;;16.01;81.18;100131.28;5049034;28;20039;-80
2022/06/23 03:10:57;;;;;;;6.32;3.47;;;18.80;84.90;;;16.04;81.66;100136.31;5030226;28;20418;-80
2022/06/23 03:13:35;;;;;;;8.73;3.63;;;18.80;85.10;;;16.01;81.67;100126.66;5050246;28;20558;-80
2022/06/23 03:16:16;;;;;;;6.15;3.25;;;18.80;85.20;;;16.01;81.31;100131.28;5068884;28;20135;-80
2022/06/23 03:18:53;;;;;;;6.60;3.50;;;18.70;85.30;;;16.05;82.00;100134.41;5065100;28;20045;-80
2022/06/23 03:21:28;;;;;;;6.35;3.22;;;18.70;85.50;;;15.99;82.08;100128.78;5048180;28;20033;-80
2022/06/23 03:24:06;;;;;;;7.85;3.63;;;18.70;85.70;;;15.97;82.32;100130.06;5061314;28;20037;-80
2022/06/23 03:26:42;;;;;;;8.45;3.67;;;18.70;85.80;;;15.97;82.95;100136.41;5057023;28;20140;-79
2022/06/23 03:29:18;;;;;;;9.35;3.50;;;18.70;86.20;;;15.95;83.17;100130.28;5057192;28;20043;-80
2022/06/23 03:31:57;;;;;;;5.70;3.40;;;18.70;86.30;;;15.96;82.88;100126.50;5066172;28;20040;-80
2022/06/23 03:34:32;;;;;;;7.45;3.85;;;18.70;86.10;;;15.98;82.85;100118.03;5067747;28;20051;-80
2022/06/23 03:37:06;;;;;;;8.25;3.92;;;18.70;86.30;;;15.96;83.31;100126.50;5063037;28;20048;-80
2022/06/23 03:42:31;;;;;;;6.07;3.53;;;18.60;86.40;;;16.06;83.27;100116.88;5062807;28;20117;-80
2022/06/23 03:45:13;;;;;;;8.18;3.47;;;18.70;86.60;;;16.09;83.52;100117.25;5072369;28;20416;-80
2022/06/23 03:47:50;;;;;;;9.77;3.70;;;18.70;86.80;;;16.08;84.22;100118.31;5059167;28;20048;-79
2022/06/23 03:50:28;;;;;;;7.65;3.47;;;18.70;87.20;;;16.11;84.18;100111.53;5066573;28;20110;-79
2022/06/23 03:53:01;;;;;;;6.88;3.70;;;18.70;87.60;;;16.15;84.67;100115.50;5053377;28;20116;-80
2022/06/23 03:55:37;;;;;;;6.60;3.42;;;18.70;87.80;;;16.12;85.44;100105.81;5062408;28;20047;-80
2022/06/23 03:58:16;;;;;;;8.30;3.60;;;18.70;88.00;;;16.15;85.31;100104.53;5063879;28;20079;-80
2022/06/23 04:00:54;;;;;;;7.63;3.50;;;18.70;88.40;;;16.22;85.36;100105.25;5071645;28;20040;-80
2022/06/23 04:03:27;;;;;;;8.93;4.20;;;18.70;88.50;;;16.24;85.36;100119.63;5044545;28;20041;-79
2022/06/23 04:06:31;;;;;;;6.22;3.50;;;18.70;88.50;;;16.26;85.89;100122.97;5050861;28;20147;-80
2022/06/23 04:09:09;;;;;;;5.03;3.42;;;18.70;89.00;;;16.34;85.04;100114.38;5031791;28;20053;-80
2022/06/23 04:12:01;;;;;;;6.25;3.35;;;18.70;88.70;;;16.39;86.25;100111.78;5042447;28;20037;-80
2022/06/23 04:14:51;;;;;;;7.00;3.70;;;18.70;89.50;;;16.57;83.53;100110.88;5063416;28;20116;-80
2022/06/23 04:17:26;;;;;;;9.05;3.72;;;18.80;88.50;;;16.59;85.24;100116.97;5049380;28;20056;-80
2022/06/23 04:19:58;;;;;;;5.68;3.53;;;18.80;89.00;;;16.59;86.57;100121.66;5051493;28;20044;-80
2022/06/23 04:22:30;;;;;;;;;;;18.90;89.80;;;16.66;84.57;100116.03;5046255;28;20045;-80
2022/06/23 04:25:02;;;;;;;7.78;3.80;;;18.80;89.30;;;16.75;85.01;100110.00;5051710;28;20011;-83
2022/06/23 04:27:45;;;;;;;7.55;4.03;;;18.80;89.50;;;16.94;82.89;100113.50;5064360;28;20055;-84
2022/06/23 04:30:27;;;;;;;7.75;4.22;;;18.90;88.50;;;17.14;81.06;100118.69;5052736;28;20041;-83
2022/06/23 04:32:56;;;;;;;8.27;3.92;;;19.00;88.00;;;17.29;81.57;100109.97;5053637;28;20051;-83
2022/06/23 04:35:30;;;;;;;6.85;3.40;;;19.10;87.70;;;17.41;80.59;100114.63;5064487;28;20048;-81
2022/06/23 04:38:06;;;;;;;6.25;3.38;;;19.10;87.90;;;17.45;82.80;100113.91;5071423;28;20109;-89
2022/06/23 04:40:46;;;;;;;6.70;3.85;;;19.20;88.80;;;17.68;80.48;100123.22;5056755;28;20049;-86
2022/06/23 04:43:19;;;;;;;7.15;3.90;;;19.30;88.20;;;17.77;80.86;100127.28;5044838;28;20041;-86
2022/06/23 04:45:56;;;;;;;7.25;4.28;;;19.40;88.20;;;18.09;78.15;100129.63;5066186;28;20036;-86
2022/06/23 04:48:32;;;;;;;8.18;3.95;;;19.50;87.30;;;18.19;78.00;100129.84;5063634;28;20114;-86
2022/06/23 04:51:06;;;;;;;7.18;3.80;;;19.60;87.30;;;18.42;77.19;100128.09;5048953;28;20064;-87
2022/06/23 04:53:45;;;;;;;6.82;3.83;;;19.70;87.00;;;18.49;77.36;100126.03;5051501;28;20127;-86
2022/06/23 04:56:30;;;;;;;8.23;3.50;;;19.70;87.30;;;18.69;74.89;100122.78;5050623;28;20128;-84
2022/06/23 04:59:05;;;;;;;7.32;3.70;;;19.80;86.10;;;18.82;74.96;100127.19;5050838;28;20049;-81
2022/06/23 05:01:39;;;;;;;9.20;3.75;;;19.90;86.10;;;18.96;74.25;100128.53;5049740;28;20119;-80
2022/06/23 05:04:16;;;;;;;5.68;3.47;;;20.00;85.90;;;19.02;75.77;100138.59;5070266;28;20036;-81
2022/06/23 05:06:48;;;;;;;6.90;3.50;;;20.10;86.60;;;19.10;74.21;100129.06;5070841;28;20644;-79
2022/06/23 05:09:23;;;;;;;12.15;3.75;;;20.20;86.20;;;19.27;74.10;100126.28;5037510;28;20044;-78
2022/06/23 05:11:56;;;;;;;7.93;3.38;;;20.30;85.90;;;19.49;74.03;100131.84;5047405;28;20045;-88
2022/06/23 05:14:31;;;;;;;4.93;3.03;;;20.40;86.00;;;19.62;72.20;100125.97;5030906;28;20069;-86
2022/06/23 05:17:10;;;;;;;7.70;3.50;;;20.50;84.70;;;19.76;70.96;100126.47;5048777;28;20076;-87
2022/06/23 05:19:40;;;;;;;8.60;3.67;;;20.60;84.70;;;19.87;72.04;100122.75;5042465;28;20051;-84
2022/06/23 05:22:28;;;;;;;7.88;3.45;;;20.60;84.30;;;19.90;70.24;100125.03;5046724;28;20042;-84
2022/06/23 05:24:58;;;;;;;7.75;3.50;;;20.70;84.10;;;19.94;69.31;100127.28;5049043;28;20128;-83
2022/06/23 05:27:32;;;;;;;6.20;3.30;;;20.80;83.40;;;19.99;70.29;100119.03;5066871;28;20140;-83
2022/06/23 05:30:24;;;;;;;8.50;3.60;;;20.80;83.80;;;20.06;69.27;100125.22;5049329;28;20123;-82
2022/06/23 05:32:56;;;;;;;7.57;3.28;;;20.80;83.40;;;19.99;69.50;100128.19;5048154;28;20045;-83
2022/06/23 05:35:30;;;;;;;13.40;3.20;;;20.80;83.30;;;19.97;69.45;100126.75;5047025;28;20058;-83
2022/06/23 05:38:01;;;;;;;8.15;3.00;;;20.80;83.20;;;20.05;70.09;100123.56;5031730;28;20045;-82
2022/06/23 05:40:35;;;;;;;7.18;3.50;;;20.90;84.20;;;20.13;69.78;100125.84;5044729;28;20033;-83
2022/06/23 05:43:05;;;;;;;9.07;3.45;;;20.90;84.00;;;20.16;69.63;100130.84;5049969;28;20037;-83
2022/06/23 05:45:39;;;;;;;7.20;3.45;;;21.00;84.30;;;20.13;68.03;100128.63;5058944;28;20143;-82
2022/06/23 05:48:11;;;;;;;6.57;3.15;;;21.00;82.70;;;20.15;69.40;100143.00;5049867;28;20044;-83
2022/06/23 05:50:47;;;;;;;7.63;3.08;;;21.00;83.20;;;20.17;67.71;100128.94;5053602;28;20120;-83
2022/06/23 05:53:23;;;;;;;10.80;3.10;;;21.00;82.60;;;20.20;68.56;100132.03;5051673;28;20481;-83
2022/06/23 05:55:59;;;;;;;6.28;3.30;;;21.00;83.00;;;20.31;68.11;100133.81;5062644;28;20044;-86
2022/06/23 05:58:37;;;;;;;9.02;3.40;;;21.10;82.90;;;21.44;65.37;100128.56;5031207;28;20072;-83
2022/06/23 06:01:14;;;;;;;7.82;2.97;;;21.30;82.70;;;25.47;53.92;100115.56;5063648;28;20125;-83
2022/06/23 06:03:50;;;;;;;10.88;3.08;;;21.70;81.40;;;28.58;44.39;100113.66;5070009;28;20043;-83
2022/06/23 06:06:17;;;;;;;10.70;3.50;;;22.10;79.90;;;30.60;39.20;100127.63;5054169;28;20045;-83
2022/06/23 06:11:38;;;;;;;7.13;3.20;;;23.00;77.10;;;33.42;33.89;100120.06;5064700;22;20143;-83
2022/06/23 06:14:06;;;;;;;10.43;3.28;;;23.50;75.70;;;34.18;31.28;100117.84;5036018;28;20069;-82
2022/06/23 06:16:34;;;;;;;6.95;2.80;;;23.90;74.00;;;34.72;29.95;100113.88;5047961;28;20045;-82
2022/06/23 06:19:03;;;;;;;5.57;3.08;;;24.30;72.80;;;35.18;28.90;100122.09;5047612;28;20469;-83
2022/06/23 06:21:34;;;;;;;4.80;2.75;;;24.70;71.90;;;35.47;28.72;100120.03;5048109;28;20041;-83
2022/06/23 06:24:12;;;;;;;10.60;3.10;;;25.10;71.50;;;35.79;28.38;100115.25;5031629;28;20042;-83
2022/06/23 06:26:53;;;;;;;7.10;3.10;;;25.40;69.70;;;35.88;27.54;100117.91;5047355;28;20406;-83
2022/06/23 06:29:33;;;;;;;12.60;3.45;;;25.70;68.80;;;36.16;27.89;100112.94;5047640;28;20211;-83
2022/06/23 06:32:17;;;;;;;8.77;3.15;;;25.90;68.50;;;36.53;27.81;100109.75;5047953;28;20052;-83
2022/06/23 06:34:50;;;;;;;9.30;3.03;;;26.00;68.70;;;36.51;28.63;100114.97;5029333;28;20049;-83
2022/06/23 06:37:19;;;;;;;6.70;3.10;;;26.10;71.00;;;32.85;32.23;100106.69;5044200;28;20112;-83
2022/06/23 06:39:56;;;;;;;10.95;2.97;;;26.00;69.70;;;29.54;37.43;100119.16;5057154;28;20041;-83
2022/06/23 06:42:28;;;;;;;5.85;2.90;;;26.00;68.60;;;27.93;43.82;100120.38;5046747;28;20069;-83
2022/06/23 06:45:08;;;;;;;;;;;25.90;70.70;;;26.97;45.07;100120.94;5047998;28;20707;-82
2022/06/23 06:47:38;;;;;;;10.38;3.08;;;25.90;69.90;;;26.44;48.63;100120.00;5048117;28;19924;-83
2022/06/23 06:50:29;;;;;;;5.45;2.65;;;25.70;71.20;;;26.12;51.13;100127.13;5048525;28;20057;-82
2022/06/23 06:53:02;;;;;;;7.18;2.75;;;25.60;73.20;;;25.91;50.56;100114.53;5047418;28;20049;-82
2022/06/23 06:55:41;;;;;;;5.93;2.65;;;25.50;72.30;;;25.82;52.02;100125.53;5042488;28;20068;-83
2022/06/23 06:58:24;;;;;;;6.90;2.78;;;25.40;73.60;;;25.83;53.11;100123.56;5047621;28;20049;-82
2022/06/23 07:01:09;;;;;;;7.20;2.80;;;25.40;74.90;;;25.73;53.42;100125.31;5048701;28;20045;-83
2022/06/23 07:03:41;;;;;;;9.60;3.40;;;25.30;74.80;;;25.65;53.44;100117.63;5047652;28;20045;-80
2022/06/23 07:06:16;;;;;;;8.70;3.08;;;25.20;74.90;;;25.65;54.41;100117.63;5058703;28;20113;-81
2022/06/23 07:08:49;;;;;;;9.13;3.20;;;25.20;76.00;;;25.69;56.33;100123.44;5049902;28;20033;-85
2022/06/23 07:11:24;;;;;;;11.13;2.58;;;25.10;78.00;;;25.56;53.87;100116.59;5050524;28;20518;-87
2022/06/23 07:13:58;;;;;;;4.55;2.30;;;25.00;75.80;;;25.53;54.15;100120.81;5050006;28;20133;-85
2022/06/23 07:16:36;;;;;;;5.38;2.85;;;25.00;75.60;;;25.67;56.17;100120.13;5051185;28;20128;-87
2022/06/23 07:19:11;;;;;;;7.93;3.13;;;25.00;78.00;;;25.79;57.44;100122.47;5052283;28;20045;-85
2022/06/23 07:21:46;;;;;;;4.78;2.65;;;25.10;79.70;;;25.73;55.82;100118.94;5051266;28;20132;-85
2022/06/23 07:24:36;;;;;;;7.88;3.25;;;25.10;77.60;;;25.77;58.54;100122.78;5051882;28;20107;-85
2022/06/23 07:27:24;;;;;;;8.23;3.60;;;25.10;80.00;;;25.78;58.11;100118.03;5051021;28;20072;-84
2022/06/23 07:30:02;;;;;;;10.18;3.55;;;25.10;79.90;;;25.75;57.41;100111.09;5045171;28;20052;-84
2022/06/23 07:33:18;;;;;;;7.90;3.65;;;25.10;78.80;;;25.73;58.34;100107.78;5049800;28;20568;-84
2022/06/23 07:35:57;;;;;;;9.82;3.70;;;25.20;79.50;;;25.69;57.96;100112.28;5040550;28;20129;-82
2022/06/23 07:38:42;;;;;;;8.07;4.15;;;25.20;78.80;;;25.69;59.55;100113.09;5050805;28;20051;-82
2022/06/23 07:41:17;;;;;;;6.65;3.80;;;25.30;80.30;;;25.71;58.71;100116.44;5044555;28;20080;-81
2022/06/23 07:43:53;;;;;;;9.18;3.65;;;25.30;79.40;;;25.74;58.37;100120.56;5056854;28;20064;-81
2022/06/23 07:46:21;;;;;;;9.45;4.18;;;25.30;79.20;;;25.77;59.06;100119.16;5045581;28;20494;-82
2022/06/23 07:48:50;;;;;;;8.05;4.22;;;25.30;79.70;;;25.78;58.99;100124.44;5047596;28;20045;-82
2022/06/23 07:51:18;;;;;;;7.32;4.05;;;25.40;79.60;;;25.81;58.71;100117.44;5049673;28;20091;-82
2022/06/23 07:53:56;;;;;;;8.32;3.80;;;25.40;79.20;;;25.82;60.78;100116.31;5058378;28;20049;-82
2022/06/23 07:56:29;;;;;;;8.00;3.90;;;25.40;80.90;;;25.86;59.71;100109.03;5044059;28;20037;-82
2022/06/23 07:59:01;;;;;;;7.82;4.05;;;25.50;79.70;;;25.90;59.91;100110.09;5056791;28;20464;-81
2022/06/23 08:01:35;;;;;;;8.68;4.00;;;25.60;80.00;;;25.94;60.61;100120.38;5050718;28;20041;-82
2022/06/23 08:04:16;;;;;;;10.77;4.25;;;25.60;80.40;;;25.93;58.42;100115.94;5066771;28;20098;-82
2022/06/23 08:07:38;;;;;;;10.75;4.30;;;25.60;78.50;;;25.91;59.25;100120.09;5052344;28;20041;-82
2022/06/23 08:10:11;;;;;;;9.98;3.92;;;25.60;79.40;;;25.92;59.48;100114.25;5047126;28;20052;-83
2022/06/23 08:12:55;;;;;;;8.07;4.20;;;25.70;79.30;;;25.92;60.28;100108.69;5053067;28;20055;-83
2022/06/23 08:18:27;;;;;;;10.23;4.10;;;25.70;78.70;;;25.97;57.85;100106.97;5051189;28;20063;-83
2022/06/23 08:21:04;;;;;;;9.65;4.13;;;25.70;77.60;;;26.00;55.33;100100.81;5048817;28;20682;-82
2022/06/23 08:23:37;;;;;;;6.38;3.97;;;25.80;75.20;;;25.98;58.80;100103.88;5051878;28;20160;-82
2022/06/23 08:26:08;;;;;;;7.28;4.13;;;25.70;78.90;;;26.07;57.99;100102.09;5044913;28;20037;-82
2022/06/23 08:28:36;;;;;;;8.18;3.97;;;25.90;77.70;;;26.10;59.69;100109.88;5050830;28;20040;-83
2022/06/23 08:31:07;;;;;;;8.60;4.00;;;25.90;79.20;;;26.14;57.20;100102.56;5048662;28;20098;-82
2022/06/23 08:33:35;;;;;;;8.90;3.70;;;26.00;77.50;;;26.14;56.40;100112.88;5044392;28;20486;-82
2022/06/23 08:36:11;;;;;;;7.07;4.07;;;26.00;76.40;;;26.12;58.13;100104.81;5049446;28;20056;-83
2022/06/23 08:38:45;;;;;;;6.93;3.92;;;25.90;76.90;;;26.14;56.05;100099.78;5048226;28;20045;-82
2022/06/23 08:41:28;;;;;;;11.77;3.90;;;26.00;76.30;;;26.08;56.13;100108.50;5050858;28;20052;-83
2022/06/23 08:44:04;;;;;;;7.60;3.58;;;26.00;75.60;;;26.10;55.19;100103.44;5049324;28;20039;-82
2022/06/23 08:46:40;;;;;;;6.50;3.67;;;26.10;74.90;;;26.13;56.78;100100.91;5049531;28;20037;-83
2022/06/23 08:49:19;;;;;;;5.95;3.33;;;26.10;76.30;;;26.18;54.04;100100.00;5049885;28;20399;-83
2022/06/23 08:51:57;;;;;;;6.35;3.40;;;26.10;73.50;;;26.17;53.97;100091.94;5050797;28;20134;-82
2022/06/23 08:54:32;;;;;;;8.00;3.70;;;26.20;73.30;;;26.18;55.78;100097.22;5049530;28;20060;-82
2022/06/23 08:57:09;;;;;;;7.32;3.97;;;26.20;75.00;;;26.25;56.01;100096.84;5052988;28;20156;-82
2022/06/23 08:59:47;;;;;;;6.40;3.17;;;26.20;75.60;;;26.25;53.08;100086.50;5047037;28;20083;-83
2022/06/23 09:02:21;;;;;;;8.20;3.40;;;26.20;72.30;;;26.37;54.06;100100.03;5052757;28;20490;-82
2022/06/23 09:04:58;;;;;;;6.40;3.40;;;26.20;74.00;;;26.44;54.15;100097.69;5049233;28;20136;-82
2022/06/23 09:07:43;;;;;;;8.43;3.45;;;26.20;74.00;;;26.45;52.37;100092.94;5048726;28;20491;-82
2022/06/23 09:10:26;;;;;;;6.72;3.30;;;26.20;73.00;;;26.42;50.59;100091.56;5052992;28;20065;-82
2022/06/23 09:13:03;;;;;;;7.65;3.50;;;26.20;70.90;;;26.44;51.31;100094.06;5048870;28;20045;-82
2022/06/23 09:16:05;;;;;;;7.50;3.20;;;26.30;70.80;;;26.45;49.81;100095.75;5053888;28;20099;-82
2022/06/23 09:19:08;;;;;;;7.70;3.25;;;26.30;69.80;;;26.45;47.61;100102.16;5041538;28;20053;-82
2022/06/23 09:22:15;;;;;;;7.15;3.30;;;26.20;67.60;;;26.50;49.34;100095.66;5057500;28;20116;-82
2022/06/23 09:25:02;;;;;;;6.05;3.25;;;26.30;69.90;;;26.51;48.17;100098.13;5048555;28;20041;-83
2022/06/23 09:27:44;;;;;;;7.75;3.30;;;26.30;67.90;;;26.47;49.47;100083.13;5045706;28;20042;-82
2022/06/23 09:30:22;;;;;;;8.63;3.38;;;26.30;68.50;;;26.51;49.90;100089.75;5055692;28;20064;-82
2022/06/23 09:33:06;;;;;;;5.65;3.20;;;26.40;69.00;;;26.56;51.23;100088.88;5046263;28;20045;-82
2022/06/23 09:36:35;;;;;;;5.18;3.30;;;26.40;70.60;;;26.57;48.35;100086.91;5050059;28;20082;-82
2022/06/23 09:39:36;;;;;;;5.22;2.95;;;26.50;68.30;;;26.59;48.57;100090.22;5020626;28;20143;-84
2022/06/23 09:42:43;;;;;;;4.88;3.30;;;26.40;67.00;;;26.62;47.42;100089.66;5050673;28;20134;-83
2022/06/23 09:45:32;;;;;;;7.65;3.50;;;26.40;66.60;;;26.62;49.04;100089.66;5041879;28;20043;-83
2022/06/23 09:48:33;;;;;;;5.55;3.35;;;26.50;68.20;;;26.66;49.45;100093.50;5057142;28;20068;-83
2022/06/23 09:51:39;;;;;;;7.35;3.15;;;26.50;67.90;;;26.64;48.54;100082.63;5044381;28;20044;-83
2022/06/23 09:54:53;;;;;;;6.75;3.40;;;26.50;67.40;;;26.67;48.63;100081.19;5031952;28;20043;-83
2022/06/23 09:57:55;;;;;;;6.00;3.60;;;26.50;68.30;;;26.70;49.54;100080.59;5053939;28;20483;-83
2022/06/23 10:00:35;;;;;;;7.80;3.22;;;26.60;68.60;;;26.65;46.82;100084.28;5049744;28;20080;-84
2022/06/23 10:03:17;;;;;;;6.90;2.97;;;26.60;65.20;;;26.51;46.78;100086.16;5048777;28;20751;-85
2022/06/23 10:06:24;;;;;;;5.68;3.00;;;26.50;65.90;;;26.48;47.68;100079.22;5046515;28;20045;-83
2022/06/23 10:09:01;;;;;;;8.82;3.53;;;26.40;65.40;;;26.49;47.82;100080.88;5045370;28;20067;-84
2022/06/23 10:12:01;;;;;;;6.13;3.20;;;26.50;66.40;;;26.55;47.74;100083.59;5047104;28;20064;-83
2022/06/23 10:14:59;;;;;;;8.48;3.35;;;26.50;66.70;;;26.59;48.94;100090.22;5040657;28;20041;-84
2022/06/23 10:17:52;;;;;;;6.10;3.20;;;26.40;67.60;;;26.60;47.45;100072.34;5038223;28;20045;-84
2022/06/23 10:20:53;;;;;;;8.93;3.45;;;26.50;66.60;;;26.60;47.66;100064.84;5045643;28;20049;-85
2022/06/23 10:23:58;;;;;;;9.38;3.53;;;26.50;66.40;;;26.56;47.68;100074.06;5044754;28;20099;-83
2022/06/23 10:26:46;;;;;;;6.03;2.90;;;26.50;66.80;;;26.49;47.69;100071.66;5039371;28;20584;-83
2022/06/23 10:29:36;;;;;;;7.40;3.30;;;26.40;65.50;;;26.50;46.57;100064.94;5046061;28;20095;-83
2022/06/23 10:32:56;;;;;;;8.15;3.00;;;26.50;65.10;;;26.53;48.83;100062.38;5048684;28;20414;-83
2022/06/23 10:35:45;;;;;;;5.50;3.30;;;26.40;66.30;;;26.71;50.63;100062.69;5039014;28;20134;-83
2022/06/23 10:38:38;;;;;;;5.28;3.25;;;26.60;69.60;;;26.60;47.67;100064.84;5047064;28;20579;-83
2022/06/23 10:41:35;;;;;;;7.20;3.40;;;26.60;66.70;;;26.54;47.59;100054.84;5049494;28;20131;-83
2022/06/23 10:44:26;;;;;;;6.68;3.45;;;26.50;66.30;;;26.60;50.10;100047.25;5048999;28;20045;-83
2022/06/23 10:47:12;;;;;;;6.72;3.20;;;26.50;68.80;;;26.69;50.06;100034.25;5055587;28;20075;-84
2022/06/23 10:50:08;;;;;;;6.63;3.40;;;26.60;69.50;;;26.86;49.97;100050.44;5055602;28;20069;-84
2022/06/23 10:53:08;;;;;;;9.10;3.63;;;26.80;68.70;;;26.74;48.25;100036.97;5042778;28;20126;-84
2022/06/23 10:55:52;;;;;;;6.90;3.38;;;26.70;66.60;;;26.71;46.18;100037.56;5055957;28;20486;-84
2022/06/23 10:58:57;;;;;;;5.68;3.38;;;26.70;64.70;;;26.79;47.76;100042.47;5055049;28;20047;-83
2022/06/23 11:01:48;;;;;;;6.45;2.85;;;26.70;66.00;;;26.80;48.94;100038.53;5055347;28;20554;-84
2022/06/23 11:04:32;;;;;;;;;;;26.70;67.10;;;26.78;47.39;100037.19;5056301;28;20087;-83
2022/06/23 11:07:27;;;;;;;5.25;3.20;;;26.70;65.90;;;26.89;50.24;100031.13;5055696;28;19956;-83
2022/06/23 11:10:13;;;;;;;6.05;3.20;;;26.80;69.50;;;26.80;45.00;100030.16;5055442;28;20047;-83
2022/06/23 11:13:02;;;;;;;8.70;3.53;;;26.80;63.10;;;26.76;47.04;100031.91;5055077;28;20045;-83
2022/06/23 11:15:41;;;;;;;5.80;3.10;;;26.70;65.60;;;26.74;45.95;100034.19;5055488;28;20406;-84
2022/06/23 11:18:29;;;;;;;6.15;3.10;;;26.70;64.30;;;26.80;46.03;100046.91;5055845;28;20045;-83